createdAt,value
2023-03-15T00:00:34.663Z,13.20
2023-03-15T00:03:26.743Z,13.40
2023-03-15T00:06:15.683Z,13.30
2023-03-15T00:09:04.174Z,13.30
2023-03-15T00:11:55.041Z,13.40
2023-03-15T00:14:42.538Z,13.40
2023-03-15T00:17:30.018Z,13.40
2023-03-15T00:20:19.918Z,13.40
2023-03-15T00:23:07.381Z,13.30
2023-03-15T00:25:55.258Z,13.40
2023-03-15T00:28:43.446Z,13.50
2023-03-15T00:31:31.290Z,13.50
2023-03-15T00:34:24.132Z,13.40
2023-03-15T00:37:11.787Z,13.40
2023-03-15T00:39:59.419Z,13.30
2023-03-15T00:42:50.369Z,13.40
2023-03-15T00:45:37.916Z,13.50
2023-03-15T00:48:25.394Z,13.60
2023-03-15T00:51:16.664Z,13.40
2023-03-15T00:54:04.205Z,13.50
2023-03-15T00:56:51.612Z,13.60
2023-03-15T00:59:39.148Z,13.70
2023-03-15T01:02:26.690Z,13.70
2023-03-15T01:05:14.494Z,13.60
2023-03-15T01:08:03.303Z,13.60
2023-03-15T01:10:51.405Z,13.70
2023-03-15T01:13:39.809Z,13.70
2023-03-15T01:16:28.673Z,13.90
2023-03-15T01:19:16.447Z,13.80
2023-03-15T01:22:03.862Z,13.50
2023-03-15T01:24:51.418Z,13.50
2023-03-15T01:27:38.977Z,13.70
2023-03-15T01:30:26.502Z,13.60
2023-03-15T01:33:13.973Z,13.60
2023-03-15T01:36:07.710Z,13.60
2023-03-15T01:38:55.362Z,13.00
2023-03-15T01:41:42.842Z,13.40
2023-03-15T01:44:55.938Z,13.30
2023-03-15T01:47:43.373Z,13.40
2023-03-15T01:50:31.171Z,13.30
2023-03-15T01:53:18.702Z,13.40
2023-03-15T01:56:07.632Z,13.10
2023-03-15T01:58:59.160Z,13.30
2023-03-15T02:01:48.555Z,13.10
2023-03-15T02:04:46.592Z,13.10
2023-03-15T02:07:34.739Z,12.80
2023-03-15T02:10:37.302Z,13.00
2023-03-15T02:13:28.847Z,13.00
2023-03-15T02:16:19.052Z,13.10
2023-03-15T02:19:28.564Z,12.80
2023-03-15T02:23:06.182Z,13.00
2023-03-15T02:26:17.877Z,13.00
2023-03-15T02:29:05.398Z,13.10
2023-03-15T02:31:53.858Z,13.00
2023-03-15T02:34:41.545Z,12.90
2023-03-15T02:37:29.180Z,13.10
2023-03-15T02:40:23.213Z,13.10
2023-03-15T02:43:28.536Z,12.90
2023-03-15T02:46:18.279Z,12.90
2023-03-15T02:49:08.758Z,13.00
2023-03-15T02:51:56.320Z,13.10
2023-03-15T02:54:43.930Z,13.20
2023-03-15T02:57:31.391Z,13.20
2023-03-15T03:00:19.302Z,13.00
2023-03-15T03:03:06.766Z,12.90
2023-03-15T03:05:54.240Z,13.20
2023-03-15T03:08:42.038Z,13.10
2023-03-15T03:11:29.659Z,13.20
2023-03-15T03:14:17.119Z,12.90
2023-03-15T03:17:04.753Z,13.00
2023-03-15T03:19:52.661Z,13.00
2023-03-15T03:22:42.493Z,13.00
2023-03-15T03:25:30.059Z,12.90
2023-03-15T03:28:17.569Z,13.10
2023-03-15T03:31:05.408Z,13.10
2023-03-15T03:33:53.796Z,13.00
2023-03-15T03:36:42.941Z,12.90
2023-03-15T03:39:30.931Z,12.80
2023-03-15T03:42:18.516Z,12.70
2023-03-15T03:45:07.558Z,12.70
2023-03-15T03:47:54.960Z,12.80
2023-03-15T03:50:42.454Z,12.70
2023-03-15T03:53:29.986Z,12.60
2023-03-15T03:56:17.475Z,12.50
2023-03-15T03:59:04.958Z,12.50
2023-03-15T04:01:52.505Z,12.70
2023-03-15T04:04:41.775Z,12.50
2023-03-15T04:07:29.303Z,12.60
2023-03-15T04:10:17.137Z,12.40
2023-03-15T04:13:04.823Z,12.50
2023-03-15T04:15:57.719Z,12.50
2023-03-15T04:18:45.782Z,12.60
2023-03-15T04:21:34.167Z,12.50
2023-03-15T04:24:21.593Z,12.60
2023-03-15T04:27:09.181Z,12.60
2023-03-15T04:29:57.116Z,12.40
2023-03-15T04:32:44.628Z,12.70
2023-03-15T04:35:36.531Z,12.60
2023-03-15T04:38:27.167Z,12.80
2023-03-15T04:41:18.716Z,12.50
2023-03-15T04:44:06.650Z,12.80
2023-03-15T04:46:55.979Z,12.80
2023-03-15T04:49:43.536Z,12.80
2023-03-15T04:52:30.958Z,12.90
2023-03-15T04:55:18.640Z,13.00
2023-03-15T04:58:06.127Z,12.80
2023-03-15T05:00:54.262Z,12.80
2023-03-15T05:03:41.982Z,12.80
2023-03-15T05:06:29.972Z,12.80
2023-03-15T05:09:19.510Z,12.50
2023-03-15T05:12:08.141Z,12.50
2023-03-15T05:14:55.694Z,12.50
2023-03-15T05:17:46.276Z,12.40
2023-03-15T05:20:33.766Z,12.60
2023-03-15T05:23:22.488Z,12.80
2023-03-15T05:26:10.017Z,12.90
2023-03-15T05:28:57.581Z,12.90
2023-03-15T05:31:45.069Z,13.00
2023-03-15T05:34:32.772Z,13.00
2023-03-15T05:37:22.607Z,13.20
2023-03-15T05:40:11.812Z,12.90
2023-03-15T05:42:59.911Z,13.10
2023-03-15T05:45:48.770Z,13.00
2023-03-15T05:48:36.416Z,13.10
2023-03-15T05:51:23.860Z,13.20
2023-03-15T05:54:11.335Z,13.20
2023-03-15T05:56:58.855Z,12.80
2023-03-15T05:59:46.274Z,12.20
2023-03-15T06:02:33.822Z,12.50
2023-03-15T06:05:21.296Z,12.10
2023-03-15T06:08:09.172Z,11.90
2023-03-15T06:10:56.696Z,11.80
2023-03-15T06:13:44.117Z,11.60
2023-03-15T06:16:31.922Z,11.40
2023-03-15T06:19:20.113Z,10.90
2023-03-15T06:22:07.692Z,11.10
2023-03-15T06:24:55.240Z,11.10
2023-03-15T06:27:42.746Z,11.30
2023-03-15T06:30:30.936Z,10.70
2023-03-15T06:33:18.412Z,10.70
2023-03-15T06:36:06.854Z,11.00
2023-03-15T06:38:57.707Z,11.30
2023-03-15T06:41:45.193Z,11.50
2023-03-15T06:44:32.922Z,11.50
2023-03-15T06:47:20.357Z,10.50
2023-03-15T06:50:09.167Z,10.90
2023-03-15T06:52:57.851Z,10.70
2023-03-15T06:55:46.746Z,10.20
2023-03-15T06:58:34.218Z,10.70
2023-03-15T07:01:21.754Z,10.30
2023-03-15T07:04:09.863Z,10.20
2023-03-15T07:06:57.495Z,9.70
2023-03-15T07:09:45.108Z,10.20
2023-03-15T07:12:33.011Z,10.00
2023-03-15T07:15:20.733Z,10.30
2023-03-15T07:18:08.786Z,10.30
2023-03-15T07:20:58.819Z,10.50
2023-03-15T07:23:46.372Z,10.30
2023-03-15T07:26:34.013Z,9.90
2023-03-15T07:29:22.007Z,10.00
2023-03-15T07:32:09.888Z,10.10
2023-03-15T07:35:00.669Z,10.10
2023-03-15T07:37:48.393Z,10.00
2023-03-15T07:40:35.996Z,9.90
2023-03-15T07:43:24.319Z,9.90
2023-03-15T07:46:11.984Z,10.00
2023-03-15T07:48:59.610Z,9.90
2023-03-15T07:51:47.322Z,9.60
2023-03-15T07:54:34.885Z,9.90
2023-03-15T07:57:22.488Z,10.10
2023-03-15T08:00:13.650Z,9.90
2023-03-15T08:03:01.282Z,10.30
2023-03-15T08:05:48.806Z,10.60
2023-03-15T08:08:36.528Z,10.40
2023-03-15T08:11:24.137Z,10.90
2023-03-15T08:14:11.744Z,11.10
2023-03-15T08:16:59.340Z,11.30
2023-03-15T08:19:46.841Z,11.30
2023-03-15T08:22:34.415Z,11.60
2023-03-15T08:25:24.539Z,11.60
2023-03-15T08:28:12.746Z,11.40
2023-03-15T08:31:00.663Z,11.70
2023-03-15T08:33:48.777Z,11.70
2023-03-15T08:36:36.373Z,11.90
2023-03-15T08:39:24.229Z,12.10
2023-03-15T08:42:11.938Z,12.20
2023-03-15T08:45:02.194Z,12.30
2023-03-15T08:47:50.578Z,11.90
2023-03-15T08:50:38.202Z,12.00
2023-03-15T08:53:25.761Z,10.80
2023-03-15T08:56:13.802Z,11.80
2023-03-15T08:59:01.422Z,11.80
2023-03-15T09:01:50.866Z,12.00
2023-03-15T09:04:38.494Z,12.20
2023-03-15T09:07:26.369Z,12.80
2023-03-15T09:10:16.668Z,13.10
2023-03-15T09:13:04.244Z,12.60
2023-03-15T09:15:56.354Z,12.30
2023-03-15T09:18:44.873Z,12.90
2023-03-15T09:21:32.396Z,13.30
2023-03-15T09:24:20.019Z,13.20
2023-03-15T09:27:07.575Z,13.40
2023-03-15T09:29:55.159Z,13.10
2023-03-15T09:32:44.309Z,13.10
2023-03-15T09:35:32.291Z,13.10
2023-03-15T09:38:20.404Z,14.00
2023-03-15T09:41:39.850Z,14.00
2023-03-15T09:44:48.537Z,13.00
2023-03-15T09:48:05.508Z,13.90
2023-03-15T09:51:38.267Z,13.90
2023-03-15T09:54:39.172Z,13.90
2023-03-15T09:57:41.643Z,13.80
2023-03-15T10:00:53.518Z,13.80
2023-03-15T10:03:50.494Z,13.90
2023-03-15T10:06:46.283Z,14.30
2023-03-15T10:09:35.092Z,14.30
2023-03-15T10:12:42.849Z,14.50
2023-03-15T10:15:48.516Z,14.50
2023-03-15T10:19:02.562Z,14.60
2023-03-15T10:22:22.350Z,14.50
2023-03-15T10:25:30.187Z,14.70
2023-03-15T10:28:36.260Z,14.50
2023-03-15T10:31:44.229Z,15.00
2023-03-15T10:34:32.481Z,14.80
2023-03-15T10:37:25.573Z,14.90
2023-03-15T10:40:18.205Z,14.40
2023-03-15T10:43:25.213Z,14.60
2023-03-15T10:46:23.291Z,14.70
2023-03-15T10:49:16.538Z,14.50
2023-03-15T10:52:06.017Z,13.40
2023-03-15T10:54:58.701Z,14.50
2023-03-15T10:58:02.413Z,14.80
2023-03-15T11:01:01.170Z,15.00
2023-03-15T11:04:15.003Z,15.00
2023-03-15T11:07:04.341Z,15.10
2023-03-15T11:09:59.203Z,15.20
2023-03-15T11:12:46.803Z,15.30
2023-03-15T11:15:34.392Z,14.60
2023-03-15T11:19:01.640Z,15.20
2023-03-15T11:21:51.696Z,14.60
2023-03-15T11:24:40.476Z,14.90
2023-03-15T11:27:31.956Z,15.10
2023-03-15T11:30:30.245Z,15.00
2023-03-15T11:33:56.812Z,14.50
2023-03-15T11:37:05.417Z,15.60
2023-03-15T11:40:12.145Z,16.00
2023-03-15T11:43:08.899Z,15.80
2023-03-15T11:46:27.658Z,15.70
2023-03-15T11:49:31.535Z,15.60
2023-03-15T11:52:24.512Z,15.30
2023-03-15T11:55:25.703Z,14.70
2023-03-15T11:58:35.897Z,14.90
2023-03-15T12:01:27.134Z,15.30
2023-03-15T12:04:32.645Z,14.40
2023-03-15T12:07:20.154Z,14.10
2023-03-15T12:10:32.836Z,14.30
2023-03-15T12:13:32.335Z,13.80
2023-03-15T12:16:28.269Z,14.10
2023-03-15T12:19:24.705Z,14.40
2023-03-15T12:22:18.182Z,15.00
2023-03-15T12:25:45.373Z,15.10
2023-03-15T12:29:16.189Z,15.10
2023-03-15T12:32:03.727Z,14.70
2023-03-15T12:34:56.594Z,15.00
2023-03-15T12:37:53.894Z,14.50
2023-03-15T12:40:55.490Z,15.00
2023-03-15T12:43:44.278Z,15.30
2023-03-15T12:46:41.499Z,15.10
2023-03-15T12:49:35.195Z,15.10
2023-03-15T12:52:23.475Z,14.70
2023-03-15T12:55:16.060Z,14.80
2023-03-15T12:58:04.895Z,15.20
2023-03-15T13:00:54.861Z,15.00
2023-03-15T13:03:43.982Z,15.40
2023-03-15T13:06:44.455Z,15.40
2023-03-15T13:10:39.260Z,15.00
2023-03-15T13:13:51.765Z,15.40
2023-03-15T13:16:44.664Z,15.70
2023-03-15T13:19:50.117Z,15.80
2023-03-15T13:23:31.378Z,15.60
2023-03-15T13:26:46.901Z,16.00
2023-03-15T13:29:34.956Z,15.60
2023-03-15T13:32:25.693Z,15.70
2023-03-15T13:35:14.627Z,15.90
2023-03-15T13:38:43.708Z,16.10
2023-03-15T13:41:32.410Z,16.40
2023-03-15T13:44:23.909Z,16.50
2023-03-15T13:47:23.978Z,16.30
2023-03-15T13:50:21.226Z,16.20
2023-03-15T13:53:15.803Z,16.20
2023-03-15T13:56:09.828Z,15.60
2023-03-15T13:58:59.248Z,16.40
2023-03-15T14:01:49.632Z,16.00
2023-03-15T14:04:38.454Z,16.20
2023-03-15T14:07:48.650Z,16.30
2023-03-15T14:10:40.848Z,16.20
2023-03-15T14:13:47.130Z,15.60
2023-03-15T14:17:01.144Z,15.90
2023-03-15T14:20:05.848Z,16.30
2023-03-15T14:22:58.018Z,16.80
2023-03-15T14:26:01.368Z,17.00
2023-03-15T14:29:18.345Z,17.20
2023-03-15T14:32:32.746Z,17.30
2023-03-15T14:35:30.339Z,17.10
2023-03-15T14:38:27.167Z,17.40
2023-03-15T14:41:33.485Z,16.80
2023-03-15T14:44:21.346Z,16.70
2023-03-15T14:47:17.239Z,17.30
2023-03-15T14:50:13.044Z,16.40
2023-03-15T14:53:00.954Z,16.40
2023-03-15T14:55:48.640Z,16.30
2023-03-15T14:58:36.504Z,16.20
2023-03-15T15:01:27.656Z,15.70
2023-03-15T15:04:15.932Z,16.10
2023-03-15T15:07:03.712Z,16.40
2023-03-15T15:09:52.078Z,16.20
2023-03-15T15:12:39.630Z,15.90
2023-03-15T15:15:27.150Z,15.90
2023-03-15T15:18:15.156Z,15.50
2023-03-15T15:21:13.932Z,15.90
2023-03-15T15:24:05.098Z,15.40
2023-03-15T15:26:53.241Z,15.80
2023-03-15T15:29:40.868Z,15.40
2023-03-15T15:32:28.455Z,15.20
2023-03-15T15:35:19.649Z,15.10
2023-03-15T15:38:13.898Z,15.00
2023-03-15T15:41:01.537Z,14.90
2023-03-15T15:43:49.101Z,14.70
2023-03-15T15:46:36.757Z,14.60
2023-03-15T15:49:24.343Z,15.00
2023-03-15T15:52:15.109Z,15.00
2023-03-15T15:55:02.792Z,14.80
2023-03-15T15:57:52.082Z,14.50
2023-03-15T16:00:39.670Z,14.60
2023-03-15T16:03:27.490Z,14.60
2023-03-15T16:06:19.950Z,14.80
2023-03-15T16:09:13.105Z,14.70
2023-03-15T16:12:00.858Z,14.30
2023-03-15T16:14:48.476Z,14.30
2023-03-15T16:17:35.987Z,14.50
2023-03-15T16:20:23.486Z,14.60
2023-03-15T16:23:22.896Z,14.50
2023-03-15T16:26:16.551Z,14.60
2023-03-15T16:29:21.374Z,14.40
2023-03-15T16:32:19.344Z,14.10
2023-03-15T16:35:15.916Z,14.20
2023-03-15T16:38:07.024Z,13.90
2023-03-15T16:40:54.693Z,13.80
2023-03-15T16:43:42.814Z,13.60
2023-03-15T16:46:30.421Z,13.70
2023-03-15T16:49:18.032Z,13.80
2023-03-15T16:52:08.421Z,13.40
2023-03-15T16:54:56.613Z,13.70
2023-03-15T16:57:44.340Z,13.50
2023-03-15T17:00:32.321Z,13.50
2023-03-15T17:03:19.872Z,13.40
2023-03-15T17:06:23.300Z,13.40
2023-03-15T17:09:19.647Z,13.20
2023-03-15T17:12:14.278Z,13.40
2023-03-15T17:15:02.197Z,13.20
2023-03-15T17:17:50.299Z,13.10
2023-03-15T17:20:38.079Z,13.20
2023-03-15T17:23:25.908Z,13.00
2023-03-15T17:26:18.144Z,12.90
2023-03-15T17:29:07.040Z,12.90
2023-03-15T17:31:54.709Z,12.80
2023-03-15T17:34:47.227Z,12.70
2023-03-15T17:37:38.176Z,12.70
2023-03-15T17:40:32.845Z,12.60
2023-03-15T17:43:20.539Z,12.40
2023-03-15T17:46:10.309Z,12.30
2023-03-15T17:49:00.194Z,12.40
2023-03-15T17:51:47.751Z,12.60
2023-03-15T17:54:35.315Z,12.30
2023-03-15T17:57:22.858Z,12.00
2023-03-15T18:00:12.589Z,12.00
2023-03-15T18:03:01.179Z,12.10
2023-03-15T18:05:48.838Z,11.90
2023-03-15T18:08:36.574Z,11.80
2023-03-15T18:11:35.963Z,11.80
2023-03-15T18:14:23.411Z,11.80
2023-03-15T18:17:11.673Z,11.80
2023-03-15T18:19:59.107Z,11.50
2023-03-15T18:22:46.665Z,11.90
2023-03-15T18:25:35.800Z,11.60
2023-03-15T18:28:23.372Z,11.60
2023-03-15T18:31:25.483Z,11.90
2023-03-15T18:34:15.774Z,12.00
2023-03-15T18:37:03.437Z,12.20
2023-03-15T18:39:50.851Z,11.90
2023-03-15T18:42:38.348Z,11.90
2023-03-15T18:45:33.315Z,11.90
2023-03-15T18:48:27.856Z,11.70
2023-03-15T18:51:25.810Z,11.80
2023-03-15T18:54:13.494Z,11.50
2023-03-15T18:57:01.853Z,11.60
2023-03-15T18:59:49.374Z,11.40
2023-03-15T19:02:36.915Z,11.40
2023-03-15T19:05:26.248Z,11.40
2023-03-15T19:08:13.792Z,11.60
2023-03-15T19:11:03.721Z,11.60
2023-03-15T19:13:51.548Z,11.50
2023-03-15T19:16:39.105Z,11.50
2023-03-15T19:19:26.774Z,11.60
2023-03-15T19:22:14.455Z,11.40
2023-03-15T19:25:01.939Z,11.50
2023-03-15T19:27:49.783Z,11.60
2023-03-15T19:30:37.878Z,11.60
2023-03-15T19:33:25.429Z,11.40
2023-03-15T19:36:13.151Z,11.50
2023-03-15T19:39:00.792Z,11.40
2023-03-15T19:41:48.275Z,11.20
2023-03-15T19:44:36.328Z,11.20
2023-03-15T19:47:23.882Z,11.30
2023-03-15T19:50:14.391Z,11.20
2023-03-15T19:53:01.883Z,11.30
2023-03-15T19:55:49.382Z,11.60
2023-03-15T19:58:37.270Z,11.30
2023-03-15T20:01:24.896Z,11.10
2023-03-15T20:04:12.476Z,11.10
2023-03-15T20:07:00.002Z,11.30
2023-03-15T20:09:47.500Z,11.30
2023-03-15T20:12:37.629Z,11.20
2023-03-15T20:15:28.170Z,11.00
2023-03-15T20:18:18.541Z,11.20
2023-03-15T20:21:06.317Z,11.10
2023-03-15T20:23:54.229Z,11.10
2023-03-15T20:26:41.896Z,11.10
2023-03-15T20:29:31.682Z,10.90
2023-03-15T20:32:19.191Z,11.10
2023-03-15T20:35:09.492Z,11.10
2023-03-15T20:37:58.120Z,11.10
2023-03-15T20:40:46.375Z,11.20
2023-03-15T20:43:34.682Z,11.00
2023-03-15T20:46:22.508Z,11.10
2023-03-15T20:49:11.015Z,10.90
2023-03-15T20:51:59.704Z,11.00
2023-03-15T20:54:47.257Z,10.70
2023-03-15T20:57:36.451Z,10.80
2023-03-15T21:00:25.030Z,10.80
2023-03-15T21:03:14.780Z,10.70
2023-03-15T21:06:05.866Z,10.90
2023-03-15T21:08:53.372Z,10.70
2023-03-15T21:11:40.935Z,10.70
2023-03-15T21:14:28.458Z,10.80
2023-03-15T21:17:15.975Z,10.70
2023-03-15T21:20:07.274Z,10.70
2023-03-15T21:22:54.739Z,10.60
2023-03-15T21:25:42.197Z,10.40
2023-03-15T21:28:31.337Z,10.40
2023-03-15T21:31:19.139Z,10.30
2023-03-15T21:34:06.591Z,10.40
2023-03-15T21:36:54.152Z,10.40
2023-03-15T21:39:41.650Z,10.20
2023-03-15T21:42:29.174Z,10.10
2023-03-15T21:45:16.876Z,10.10
2023-03-15T21:48:04.504Z,10.00
2023-03-15T21:50:55.326Z,9.90
2023-03-15T21:53:43.686Z,9.80
2023-03-15T21:56:31.836Z,9.80
2023-03-15T21:59:28.194Z,9.70
2023-03-15T22:02:16.779Z,9.70
2023-03-15T22:05:06.219Z,9.60
2023-03-15T22:07:53.907Z,9.60
2023-03-15T22:10:41.396Z,9.50
2023-03-15T22:13:30.094Z,9.50
2023-03-15T22:16:17.736Z,9.50
2023-03-15T22:19:05.336Z,9.40
2023-03-15T22:21:52.811Z,9.30
2023-03-15T22:24:41.890Z,9.20
2023-03-15T22:27:29.427Z,9.30
2023-03-15T22:30:18.945Z,9.10
2023-03-15T22:33:07.006Z,9.30
2023-03-15T22:35:58.940Z,9.30
2023-03-15T22:38:50.068Z,9.50
2023-03-15T22:41:38.596Z,9.40
2023-03-15T22:44:26.050Z,9.30
2023-03-15T22:47:13.462Z,9.30
2023-03-15T22:50:01.112Z,9.10
2023-03-15T22:52:51.888Z,9.20
2023-03-15T22:55:39.340Z,9.20
2023-03-15T22:58:27.458Z,9.10
2023-03-15T23:01:15.013Z,9.20
2023-03-15T23:04:02.479Z,9.20
2023-03-15T23:06:50.322Z,9.10
2023-03-15T23:09:37.856Z,9.00
2023-03-15T23:12:35.849Z,9.00
2023-03-15T23:15:24.618Z,8.80
2023-03-15T23:18:14.746Z,8.80
2023-03-15T23:21:10.108Z,8.90
2023-03-15T23:23:57.560Z,8.80
2023-03-15T23:26:45.203Z,8.90
2023-03-15T23:29:47.177Z,8.80
2023-03-15T23:32:42.002Z,8.80
2023-03-15T23:35:29.916Z,8.70
2023-03-15T23:38:17.500Z,8.70
2023-03-15T23:41:05.670Z,8.70
2023-03-15T23:43:53.271Z,8.70
2023-03-15T23:46:41.550Z,8.60
2023-03-15T23:49:29.915Z,8.60
2023-03-15T23:52:18.793Z,8.60
2023-03-15T23:55:06.927Z,8.60
2023-03-15T23:57:54.327Z,8.70
